sensor_id;sensor_type;location;lat;lon;timestamp;P1;durP1;ratioP1;P2;durP2;ratioP2
20468;SDS011;10393;52.460;13.322;2022-08-19T00:00:02;7.95;;;6.40;;
20468;SDS011;10393;52.460;13.322;2022-08-19T00:01:46;9.23;;;7.30;;
20468;SDS011;10393;52.460;13.322;2022-08-19T00:03:27;13.00;;;9.13;;
20468;SDS011;10393;52.460;13.322;2022-08-19T00:05:09;9.88;;;8.05;;
20468;SDS011;10393;52.460;13.322;2022-08-19T00:06:50;9.93;;;7.78;;
20468;SDS011;10393;52.460;13.322;2022-08-19T00:08:31;10.05;;;7.80;;
20468;SDS011;10393;52.460;13.322;2022-08-19T00:10:13;8.05;;;6.82;;
20468;SDS011;10393;52.460;13.322;2022-08-19T00:11:55;10.05;;;7.65;;
20468;SDS011;10393;52.460;13.322;2022-08-19T00:13:37;12.52;;;8.20;;
20468;SDS011;10393;52.460;13.322;2022-08-19T00:15:19;9.30;;;7.60;;
20468;SDS011;10393;52.460;13.322;2022-08-19T00:17:01;11.85;;;8.48;;
20468;SDS011;10393;52.460;13.322;2022-08-19T00:18:43;10.57;;;7.85;;
20468;SDS011;10393;52.460;13.322;2022-08-19T00:20:24;10.40;;;8.50;;
20468;SDS011;10393;52.460;13.322;2022-08-19T00:22:04;13.00;;;8.05;;
20468;SDS011;10393;52.460;13.322;2022-08-19T00:23:45;13.93;;;8.50;;
20468;SDS011;10393;52.460;13.322;2022-08-19T00:25:26;14.50;;;8.93;;
20468;SDS011;10393;52.460;13.322;2022-08-19T00:27:07;9.88;;;7.70;;
20468;SDS011;10393;52.460;13.322;2022-08-19T00:28:48;13.45;;;8.40;;
20468;SDS011;10393;52.460;13.322;2022-08-19T00:30:29;9.93;;;7.90;;
20468;SDS011;10393;52.460;13.322;2022-08-19T00:32:10;14.05;;;9.15;;
20468;SDS011;10393;52.460;13.322;2022-08-19T00:33:52;10.10;;;8.32;;
20468;SDS011;10393;52.460;13.322;2022-08-19T00:35:32;9.63;;;8.40;;
20468;SDS011;10393;52.460;13.322;2022-08-19T00:37:13;11.57;;;8.38;;
20468;SDS011;10393;52.460;13.322;2022-08-19T00:38:54;10.10;;;8.02;;
20468;SDS011;10393;52.460;13.322;2022-08-19T00:40:35;16.30;;;8.27;;
20468;SDS011;10393;52.460;13.322;2022-08-19T00:42:16;10.38;;;8.15;;
20468;SDS011;10393;52.460;13.322;2022-08-19T00:43:59;7.88;;;7.07;;
20468;SDS011;10393;52.460;13.322;2022-08-19T00:45:44;9.60;;;7.70;;
20468;SDS011;10393;52.460;13.322;2022-08-19T00:47:25;11.30;;;8.48;;
20468;SDS011;10393;52.460;13.322;2022-08-19T00:49:08;9.65;;;7.30;;
20468;SDS011;10393;52.460;13.322;2022-08-19T00:50:57;9.95;;;7.55;;
20468;SDS011;10393;52.460;13.322;2022-08-19T00:52:39;9.88;;;6.55;;
20468;SDS011;10393;52.460;13.322;2022-08-19T00:54:25;8.40;;;6.70;;
20468;SDS011;10393;52.460;13.322;2022-08-19T00:56:06;12.45;;;8.07;;
20468;SDS011;10393;52.460;13.322;2022-08-19T00:57:53;14.23;;;7.47;;
20468;SDS011;10393;52.460;13.322;2022-08-19T00:59:36;9.50;;;7.50;;
20468;SDS011;10393;52.460;13.322;2022-08-19T01:01:19;8.52;;;7.20;;
20468;SDS011;10393;52.460;13.322;2022-08-19T01:02:59;12.60;;;7.85;;
20468;SDS011;10393;52.460;13.322;2022-08-19T01:04:40;9.15;;;7.97;;
20468;SDS011;10393;52.460;13.322;2022-08-19T01:06:21;10.25;;;7.90;;
20468;SDS011;10393;52.460;13.322;2022-08-19T01:08:03;7.90;;;6.75;;
20468;SDS011;10393;52.460;13.322;2022-08-19T01:09:45;9.30;;;6.82;;
20468;SDS011;10393;52.460;13.322;2022-08-19T01:11:27;10.70;;;7.85;;
20468;SDS011;10393;52.460;13.322;2022-08-19T01:13:09;9.68;;;6.95;;
20468;SDS011;10393;52.460;13.322;2022-08-19T01:14:50;8.90;;;7.15;;
20468;SDS011;10393;52.460;13.322;2022-08-19T01:16:31;9.00;;;7.03;;
20468;SDS011;10393;52.460;13.322;2022-08-19T01:18:13;10.07;;;7.07;;
20468;SDS011;10393;52.460;13.322;2022-08-19T01:19:56;8.32;;;7.25;;
20468;SDS011;10393;52.460;13.322;2022-08-19T01:21:40;11.35;;;6.60;;
20468;SDS011;10393;52.460;13.322;2022-08-19T01:23:26;7.63;;;6.25;;
20468;SDS011;10393;52.460;13.322;2022-08-19T01:25:24;10.02;;;6.72;;
20468;SDS011;10393;52.460;13.322;2022-08-19T01:27:08;9.70;;;8.25;;
20468;SDS011;10393;52.460;13.322;2022-08-19T01:28:50;14.75;;;7.93;;
20468;SDS011;10393;52.460;13.322;2022-08-19T01:30:35;10.57;;;8.32;;
20468;SDS011;10393;52.460;13.322;2022-08-19T01:32:16;9.23;;;6.93;;
20468;SDS011;10393;52.460;13.322;2022-08-19T01:34:00;9.00;;;6.45;;
20468;SDS011;10393;52.460;13.322;2022-08-19T01:35:41;8.57;;;6.97;;
20468;SDS011;10393;52.460;13.322;2022-08-19T01:37:22;10.15;;;7.28;;
20468;SDS011;10393;52.460;13.322;2022-08-19T01:39:06;10.98;;;7.53;;
20468;SDS011;10393;52.460;13.322;2022-08-19T01:40:48;10.07;;;7.78;;
20468;SDS011;10393;52.460;13.322;2022-08-19T01:42:28;11.98;;;8.27;;
20468;SDS011;10393;52.460;13.322;2022-08-19T01:44:12;11.70;;;7.72;;
20468;SDS011;10393;52.460;13.322;2022-08-19T01:45:53;10.63;;;8.00;;
20468;SDS011;10393;52.460;13.322;2022-08-19T01:47:35;11.10;;;8.68;;
20468;SDS011;10393;52.460;13.322;2022-08-19T01:49:17;13.18;;;9.13;;
20468;SDS011;10393;52.460;13.322;2022-08-19T01:51:00;15.40;;;8.48;;
20468;SDS011;10393;52.460;13.322;2022-08-19T01:52:41;15.73;;;8.55;;
20468;SDS011;10393;52.460;13.322;2022-08-19T01:54:24;17.70;;;9.25;;
20468;SDS011;10393;52.460;13.322;2022-08-19T01:56:05;10.00;;;8.05;;
20468;SDS011;10393;52.460;13.322;2022-08-19T01:57:48;13.85;;;8.15;;
20468;SDS011;10393;52.460;13.322;2022-08-19T01:59:30;10.60;;;7.95;;
20468;SDS011;10393;52.460;13.322;2022-08-19T02:01:12;10.23;;;7.95;;
20468;SDS011;10393;52.460;13.322;2022-08-19T02:02:53;12.75;;;8.75;;
20468;SDS011;10393;52.460;13.322;2022-08-19T02:04:35;13.65;;;8.57;;
20468;SDS011;10393;52.460;13.322;2022-08-19T02:06:17;17.50;;;8.05;;
20468;SDS011;10393;52.460;13.322;2022-08-19T02:07:58;17.63;;;7.82;;
20468;SDS011;10393;52.460;13.322;2022-08-19T02:09:39;10.02;;;8.05;;
20468;SDS011;10393;52.460;13.322;2022-08-19T02:11:21;15.10;;;8.68;;
20468;SDS011;10393;52.460;13.322;2022-08-19T02:13:06;12.60;;;7.57;;
20468;SDS011;10393;52.460;13.322;2022-08-19T02:14:47;11.18;;;8.07;;
20468;SDS011;10393;52.460;13.322;2022-08-19T02:16:28;9.13;;;8.18;;
20468;SDS011;10393;52.460;13.322;2022-08-19T02:18:10;16.20;;;8.90;;
20468;SDS011;10393;52.460;13.322;2022-08-19T02:19:51;11.30;;;8.55;;
20468;SDS011;10393;52.460;13.322;2022-08-19T02:21:32;16.15;;;9.27;;
20468;SDS011;10393;52.460;13.322;2022-08-19T02:23:14;14.90;;;8.63;;
20468;SDS011;10393;52.460;13.322;2022-08-19T02:24:56;12.48;;;8.30;;
20468;SDS011;10393;52.460;13.322;2022-08-19T02:26:37;11.60;;;8.23;;
20468;SDS011;10393;52.460;13.322;2022-08-19T02:28:18;12.32;;;8.63;;
20468;SDS011;10393;52.460;13.322;2022-08-19T02:29:59;11.68;;;8.07;;
20468;SDS011;10393;52.460;13.322;2022-08-19T02:31:39;13.25;;;8.35;;
20468;SDS011;10393;52.460;13.322;2022-08-19T02:33:20;13.27;;;8.35;;
20468;SDS011;10393;52.460;13.322;2022-08-19T02:35:01;11.63;;;8.50;;
20468;SDS011;10393;52.460;13.322;2022-08-19T02:36:43;12.48;;;7.72;;
20468;SDS011;10393;52.460;13.322;2022-08-19T02:38:24;7.50;;;6.60;;
20468;SDS011;10393;52.460;13.322;2022-08-19T02:40:07;12.88;;;8.68;;
20468;SDS011;10393;52.460;13.322;2022-08-19T02:41:48;10.02;;;7.97;;
20468;SDS011;10393;52.460;13.322;2022-08-19T02:43:32;14.63;;;8.70;;
20468;SDS011;10393;52.460;13.322;2022-08-19T02:45:16;11.07;;;7.60;;
20468;SDS011;10393;52.460;13.322;2022-08-19T02:46:57;9.60;;;7.55;;
20468;SDS011;10393;52.460;13.322;2022-08-19T02:48:39;11.18;;;8.05;;
20468;SDS011;10393;52.460;13.322;2022-08-19T02:50:19;10.65;;;7.50;;
20468;SDS011;10393;52.460;13.322;2022-08-19T02:52:00;9.85;;;7.22;;
20468;SDS011;10393;52.460;13.322;2022-08-19T02:53:41;10.90;;;7.70;;
20468;SDS011;10393;52.460;13.322;2022-08-19T02:55:22;11.57;;;7.47;;
20468;SDS011;10393;52.460;13.322;2022-08-19T02:57:03;8.15;;;6.78;;
20468;SDS011;10393;52.460;13.322;2022-08-19T02:58:44;10.85;;;8.30;;
20468;SDS011;10393;52.460;13.322;2022-08-19T03:00:26;8.85;;;7.75;;
20468;SDS011;10393;52.460;13.322;2022-08-19T03:02:07;10.48;;;7.57;;
20468;SDS011;10393;52.460;13.322;2022-08-19T03:03:48;8.48;;;7.35;;
20468;SDS011;10393;52.460;13.322;2022-08-19T03:05:28;11.23;;;8.35;;
20468;SDS011;10393;52.460;13.322;2022-08-19T03:07:12;8.27;;;6.70;;
20468;SDS011;10393;52.460;13.322;2022-08-19T03:08:55;8.52;;;6.90;;
20468;SDS011;10393;52.460;13.322;2022-08-19T03:10:39;7.90;;;6.78;;
20468;SDS011;10393;52.460;13.322;2022-08-19T03:12:24;9.80;;;7.43;;
20468;SDS011;10393;52.460;13.322;2022-08-19T03:14:06;8.75;;;6.97;;
20468;SDS011;10393;52.460;13.322;2022-08-19T03:15:48;10.35;;;8.20;;
20468;SDS011;10393;52.460;13.322;2022-08-19T03:17:29;14.13;;;8.27;;
20468;SDS011;10393;52.460;13.322;2022-08-19T03:19:09;12.10;;;7.82;;
20468;SDS011;10393;52.460;13.322;2022-08-19T03:20:51;12.02;;;7.90;;
20468;SDS011;10393;52.460;13.322;2022-08-19T03:22:34;11.40;;;8.50;;
20468;SDS011;10393;52.460;13.322;2022-08-19T03:24:16;10.55;;;7.40;;
20468;SDS011;10393;52.460;13.322;2022-08-19T03:25:57;9.50;;;7.70;;
20468;SDS011;10393;52.460;13.322;2022-08-19T03:27:38;12.02;;;8.55;;
20468;SDS011;10393;52.460;13.322;2022-08-19T03:29:19;15.20;;;8.20;;
20468;SDS011;10393;52.460;13.322;2022-08-19T03:31:04;12.25;;;7.78;;
20468;SDS011;10393;52.460;13.322;2022-08-19T03:32:46;13.07;;;7.32;;
20468;SDS011;10393;52.460;13.322;2022-08-19T03:34:29;13.32;;;7.95;;
20468;SDS011;10393;52.460;13.322;2022-08-19T03:36:12;11.77;;;8.05;;
20468;SDS011;10393;52.460;13.322;2022-08-19T03:37:54;12.10;;;6.28;;
20468;SDS011;10393;52.460;13.322;2022-08-19T03:39:37;9.38;;;8.07;;
20468;SDS011;10393;52.460;13.322;2022-08-19T03:41:20;11.07;;;6.82;;
20468;SDS011;10393;52.460;13.322;2022-08-19T03:43:03;9.93;;;8.93;;
20468;SDS011;10393;52.460;13.322;2022-08-19T03:44:44;12.80;;;8.85;;
20468;SDS011;10393;52.460;13.322;2022-08-19T03:46:26;9.00;;;7.68;;
20468;SDS011;10393;52.460;13.322;2022-08-19T03:48:09;10.65;;;8.35;;
20468;SDS011;10393;52.460;13.322;2022-08-19T03:49:50;11.95;;;8.25;;
20468;SDS011;10393;52.460;13.322;2022-08-19T03:51:32;10.88;;;8.93;;
20468;SDS011;10393;52.460;13.322;2022-08-19T03:53:16;9.52;;;8.10;;
20468;SDS011;10393;52.460;13.322;2022-08-19T03:54:57;9.20;;;6.82;;
20468;SDS011;10393;52.460;13.322;2022-08-19T03:56:39;16.48;;;10.30;;
20468;SDS011;10393;52.460;13.322;2022-08-19T03:58:22;13.43;;;9.20;;
20468;SDS011;10393;52.460;13.322;2022-08-19T04:00:03;9.90;;;8.07;;
20468;SDS011;10393;52.460;13.322;2022-08-19T04:01:46;11.77;;;8.75;;
20468;SDS011;10393;52.460;13.322;2022-08-19T04:03:28;10.25;;;7.00;;
20468;SDS011;10393;52.460;13.322;2022-08-19T04:05:08;9.80;;;7.85;;
20468;SDS011;10393;52.460;13.322;2022-08-19T04:06:50;11.90;;;8.23;;
20468;SDS011;10393;52.460;13.322;2022-08-19T04:08:31;10.75;;;8.15;;
20468;SDS011;10393;52.460;13.322;2022-08-19T04:10:12;9.00;;;6.82;;
20468;SDS011;10393;52.460;13.322;2022-08-19T04:11:55;6.80;;;5.93;;
20468;SDS011;10393;52.460;13.322;2022-08-19T04:13:36;13.70;;;7.28;;
20468;SDS011;10393;52.460;13.322;2022-08-19T04:15:18;11.75;;;8.90;;
20468;SDS011;10393;52.460;13.322;2022-08-19T04:16:59;10.90;;;8.35;;
20468;SDS011;10393;52.460;13.322;2022-08-19T04:18:41;8.70;;;6.78;;
20468;SDS011;10393;52.460;13.322;2022-08-19T04:20:22;8.82;;;7.90;;
20468;SDS011;10393;52.460;13.322;2022-08-19T04:22:03;9.10;;;7.07;;
20468;SDS011;10393;52.460;13.322;2022-08-19T04:23:44;10.65;;;7.85;;
20468;SDS011;10393;52.460;13.322;2022-08-19T04:25:25;10.30;;;8.40;;
20468;SDS011;10393;52.460;13.322;2022-08-19T04:27:06;7.82;;;6.53;;
20468;SDS011;10393;52.460;13.322;2022-08-19T04:28:47;8.60;;;7.75;;
20468;SDS011;10393;52.460;13.322;2022-08-19T04:30:29;12.93;;;8.88;;
20468;SDS011;10393;52.460;13.322;2022-08-19T04:32:09;9.40;;;8.38;;
20468;SDS011;10393;52.460;13.322;2022-08-19T04:33:50;13.55;;;8.18;;
20468;SDS011;10393;52.460;13.322;2022-08-19T04:35:42;13.70;;;8.38;;
20468;SDS011;10393;52.460;13.322;2022-08-19T04:37:25;12.00;;;8.10;;
20468;SDS011;10393;52.460;13.322;2022-08-19T04:39:11;9.45;;;8.10;;
20468;SDS011;10393;52.460;13.322;2022-08-19T04:40:54;12.38;;;8.68;;
20468;SDS011;10393;52.460;13.322;2022-08-19T04:42:53;8.80;;;7.72;;
20468;SDS011;10393;52.460;13.322;2022-08-19T04:44:35;10.07;;;7.28;;
20468;SDS011;10393;52.460;13.322;2022-08-19T04:46:16;8.63;;;6.43;;
20468;SDS011;10393;52.460;13.322;2022-08-19T04:47:57;10.00;;;7.88;;
20468;SDS011;10393;52.460;13.322;2022-08-19T04:49:38;8.30;;;7.40;;
20468;SDS011;10393;52.460;13.322;2022-08-19T04:51:18;5.90;;;4.07;;
20468;SDS011;10393;52.460;13.322;2022-08-19T04:53:00;9.95;;;8.38;;
20468;SDS011;10393;52.460;13.322;2022-08-19T04:54:41;11.98;;;8.23;;
20468;SDS011;10393;52.460;13.322;2022-08-19T04:56:22;10.57;;;8.38;;
20468;SDS011;10393;52.460;13.322;2022-08-19T04:58:06;8.48;;;6.88;;
20468;SDS011;10393;52.460;13.322;2022-08-19T04:59:47;9.88;;;6.72;;
20468;SDS011;10393;52.460;13.322;2022-08-19T05:01:28;7.95;;;7.07;;
20468;SDS011;10393;52.460;13.322;2022-08-19T05:03:09;11.18;;;8.25;;
20468;SDS011;10393;52.460;13.322;2022-08-19T05:04:51;7.07;;;5.72;;
20468;SDS011;10393;52.460;13.322;2022-08-19T05:06:37;8.52;;;7.07;;
20468;SDS011;10393;52.460;13.322;2022-08-19T05:08:19;8.05;;;7.00;;
20468;SDS011;10393;52.460;13.322;2022-08-19T05:10:03;9.25;;;6.78;;
20468;SDS011;10393;52.460;13.322;2022-08-19T05:11:44;11.18;;;7.40;;
20468;SDS011;10393;52.460;13.322;2022-08-19T05:13:25;9.38;;;6.22;;
20468;SDS011;10393;52.460;13.322;2022-08-19T05:15:07;7.63;;;6.90;;
20468;SDS011;10393;52.460;13.322;2022-08-19T05:16:48;13.35;;;6.68;;
20468;SDS011;10393;52.460;13.322;2022-08-19T05:18:29;8.93;;;7.05;;
20468;SDS011;10393;52.460;13.322;2022-08-19T05:20:29;9.05;;;6.90;;
20468;SDS011;10393;52.460;13.322;2022-08-19T05:22:28;9.70;;;7.13;;
20468;SDS011;10393;52.460;13.322;2022-08-19T05:24:12;7.68;;;4.45;;
20468;SDS011;10393;52.460;13.322;2022-08-19T05:25:54;8.05;;;5.60;;
20468;SDS011;10393;52.460;13.322;2022-08-19T05:27:35;4.07;;;3.67;;
20468;SDS011;10393;52.460;13.322;2022-08-19T05:29:17;7.60;;;4.32;;
20468;SDS011;10393;52.460;13.322;2022-08-19T05:31:00;10.00;;;6.43;;
20468;SDS011;10393;52.460;13.322;2022-08-19T05:32:41;8.93;;;4.97;;
20468;SDS011;10393;52.460;13.322;2022-08-19T05:34:23;4.75;;;4.28;;
20468;SDS011;10393;52.460;13.322;2022-08-19T05:36:07;8.50;;;7.30;;
20468;SDS011;10393;52.460;13.322;2022-08-19T05:37:48;7.18;;;6.25;;
20468;SDS011;10393;52.460;13.322;2022-08-19T05:39:29;4.68;;;4.20;;
20468;SDS011;10393;52.460;13.322;2022-08-19T05:41:13;12.05;;;7.57;;
20468;SDS011;10393;52.460;13.322;2022-08-19T05:42:55;10.63;;;6.72;;
20468;SDS011;10393;52.460;13.322;2022-08-19T05:44:37;10.48;;;7.07;;
20468;SDS011;10393;52.460;13.322;2022-08-19T05:46:23;10.20;;;6.60;;
20468;SDS011;10393;52.460;13.322;2022-08-19T05:48:04;9.48;;;7.93;;
20468;SDS011;10393;52.460;13.322;2022-08-19T05:49:45;9.43;;;7.07;;
20468;SDS011;10393;52.460;13.322;2022-08-19T05:51:26;9.68;;;6.50;;
20468;SDS011;10393;52.460;13.322;2022-08-19T05:53:07;8.95;;;7.72;;
20468;SDS011;10393;52.460;13.322;2022-08-19T05:54:49;15.77;;;9.00;;
20468;SDS011;10393;52.460;13.322;2022-08-19T05:56:31;10.13;;;7.40;;
20468;SDS011;10393;52.460;13.322;2022-08-19T05:58:12;12.00;;;8.10;;
20468;SDS011;10393;52.460;13.322;2022-08-19T05:59:53;10.40;;;9.30;;
20468;SDS011;10393;52.460;13.322;2022-08-19T06:01:35;9.73;;;8.20;;
20468;SDS011;10393;52.460;13.322;2022-08-19T06:03:17;10.37;;;8.83;;
20468;SDS011;10393;52.460;13.322;2022-08-19T06:04:58;8.50;;;7.60;;
20468;SDS011;10393;52.460;13.322;2022-08-19T06:06:39;8.43;;;7.25;;
20468;SDS011;10393;52.460;13.322;2022-08-19T06:08:19;8.75;;;7.03;;
20468;SDS011;10393;52.460;13.322;2022-08-19T06:10:00;9.82;;;7.50;;
20468;SDS011;10393;52.460;13.322;2022-08-19T06:11:46;8.93;;;7.28;;
20468;SDS011;10393;52.460;13.322;2022-08-19T06:13:28;11.85;;;9.23;;
20468;SDS011;10393;52.460;13.322;2022-08-19T06:15:11;14.73;;;9.73;;
20468;SDS011;10393;52.460;13.322;2022-08-19T06:16:53;13.02;;;10.30;;
20468;SDS011;10393;52.460;13.322;2022-08-19T06:18:34;10.27;;;7.93;;
20468;SDS011;10393;52.460;13.322;2022-08-19T06:20:15;13.52;;;9.80;;
20468;SDS011;10393;52.460;13.322;2022-08-19T06:21:58;12.60;;;9.10;;
20468;SDS011;10393;52.460;13.322;2022-08-19T06:23:39;12.00;;;9.13;;
20468;SDS011;10393;52.460;13.322;2022-08-19T06:25:20;10.52;;;9.40;;
20468;SDS011;10393;52.460;13.322;2022-08-19T06:27:02;11.30;;;9.63;;
20468;SDS011;10393;52.460;13.322;2022-08-19T06:28:43;11.35;;;8.35;;
20468;SDS011;10393;52.460;13.322;2022-08-19T06:30:26;12.63;;;8.73;;
20468;SDS011;10393;52.460;13.322;2022-08-19T06:32:07;13.13;;;10.03;;
20468;SDS011;10393;52.460;13.322;2022-08-19T06:33:48;14.52;;;10.43;;
20468;SDS011;10393;52.460;13.322;2022-08-19T06:35:29;14.05;;;10.00;;
20468;SDS011;10393;52.460;13.322;2022-08-19T06:37:10;15.73;;;9.10;;
20468;SDS011;10393;52.460;13.322;2022-08-19T06:38:51;16.00;;;10.38;;
20468;SDS011;10393;52.460;13.322;2022-08-19T06:40:32;11.02;;;9.13;;
20468;SDS011;10393;52.460;13.322;2022-08-19T06:42:13;16.88;;;9.15;;
20468;SDS011;10393;52.460;13.322;2022-08-19T06:43:56;13.88;;;9.45;;
20468;SDS011;10393;52.460;13.322;2022-08-19T06:45:37;13.00;;;9.23;;
20468;SDS011;10393;52.460;13.322;2022-08-19T06:47:19;10.95;;;9.80;;
20468;SDS011;10393;52.460;13.322;2022-08-19T06:49:01;12.63;;;9.35;;
20468;SDS011;10393;52.460;13.322;2022-08-19T06:50:41;13.32;;;8.80;;
20468;SDS011;10393;52.460;13.322;2022-08-19T06:52:22;10.10;;;8.25;;
20468;SDS011;10393;52.460;13.322;2022-08-19T06:54:03;11.18;;;8.98;;
20468;SDS011;10393;52.460;13.322;2022-08-19T06:55:45;11.02;;;8.40;;
20468;SDS011;10393;52.460;13.322;2022-08-19T06:57:26;10.30;;;8.43;;
20468;SDS011;10393;52.460;13.322;2022-08-19T06:59:08;9.73;;;8.68;;
20468;SDS011;10393;52.460;13.322;2022-08-19T07:00:50;10.52;;;9.20;;
20468;SDS011;10393;52.460;13.322;2022-08-19T07:02:31;12.38;;;9.35;;
20468;SDS011;10393;52.460;13.322;2022-08-19T07:04:14;11.07;;;8.98;;
20468;SDS011;10393;52.460;13.322;2022-08-19T07:05:56;11.88;;;8.00;;
20468;SDS011;10393;52.460;13.322;2022-08-19T07:07:37;11.30;;;8.77;;
20468;SDS011;10393;52.460;13.322;2022-08-19T07:09:18;13.50;;;8.23;;
20468;SDS011;10393;52.460;13.322;2022-08-19T07:10:59;9.57;;;7.88;;
20468;SDS011;10393;52.460;13.322;2022-08-19T07:12:40;12.30;;;7.38;;
20468;SDS011;10393;52.460;13.322;2022-08-19T07:14:23;12.90;;;8.02;;
20468;SDS011;10393;52.460;13.322;2022-08-19T07:16:10;11.80;;;7.47;;
20468;SDS011;10393;52.460;13.322;2022-08-19T07:17:52;9.45;;;8.10;;
20468;SDS011;10393;52.460;13.322;2022-08-19T07:19:34;6.07;;;4.88;;
20468;SDS011;10393;52.460;13.322;2022-08-19T07:21:17;10.98;;;7.40;;
20468;SDS011;10393;52.460;13.322;2022-08-19T07:23:00;10.07;;;6.45;;
20468;SDS011;10393;52.460;13.322;2022-08-19T07:24:40;9.73;;;8.77;;
20468;SDS011;10393;52.460;13.322;2022-08-19T07:26:25;16.50;;;9.93;;
20468;SDS011;10393;52.460;13.322;2022-08-19T07:28:08;24.95;;;14.75;;
20468;SDS011;10393;52.460;13.322;2022-08-19T07:29:50;13.38;;;10.18;;
20468;SDS011;10393;52.460;13.322;2022-08-19T07:31:31;10.93;;;9.75;;
20468;SDS011;10393;52.460;13.322;2022-08-19T07:33:16;10.07;;;8.98;;
20468;SDS011;10393;52.460;13.322;2022-08-19T07:34:58;12.07;;;9.57;;
20468;SDS011;10393;52.460;13.322;2022-08-19T07:36:41;12.68;;;9.48;;
20468;SDS011;10393;52.460;13.322;2022-08-19T07:38:23;16.38;;;10.60;;
20468;SDS011;10393;52.460;13.322;2022-08-19T07:40:05;14.30;;;9.60;;
20468;SDS011;10393;52.460;13.322;2022-08-19T07:41:47;10.73;;;9.52;;
20468;SDS011;10393;52.460;13.322;2022-08-19T07:43:30;11.55;;;10.40;;
20468;SDS011;10393;52.460;13.322;2022-08-19T07:45:11;14.50;;;10.02;;
20468;SDS011;10393;52.460;13.322;2022-08-19T07:46:53;12.50;;;9.40;;
20468;SDS011;10393;52.460;13.322;2022-08-19T07:48:35;10.93;;;9.23;;
20468;SDS011;10393;52.460;13.322;2022-08-19T07:50:17;16.40;;;10.20;;
20468;SDS011;10393;52.460;13.322;2022-08-19T07:52:00;12.20;;;9.57;;
20468;SDS011;10393;52.460;13.322;2022-08-19T07:53:45;13.85;;;9.98;;
20468;SDS011;10393;52.460;13.322;2022-08-19T07:55:26;12.32;;;9.43;;
20468;SDS011;10393;52.460;13.322;2022-08-19T07:57:07;11.88;;;10.27;;
20468;SDS011;10393;52.460;13.322;2022-08-19T07:58:50;13.38;;;9.82;;
20468;SDS011;10393;52.460;13.322;2022-08-19T08:00:31;11.23;;;9.93;;
20468;SDS011;10393;52.460;13.322;2022-08-19T08:02:12;13.88;;;10.20;;
20468;SDS011;10393;52.460;13.322;2022-08-19T08:03:53;15.38;;;9.65;;
20468;SDS011;10393;52.460;13.322;2022-08-19T08:05:54;13.05;;;10.70;;
20468;SDS011;10393;52.460;13.322;2022-08-19T08:07:53;12.27;;;9.77;;
20468;SDS011;10393;52.460;13.322;2022-08-19T08:09:53;12.00;;;10.10;;
20468;SDS011;10393;52.460;13.322;2022-08-19T08:11:34;10.63;;;9.52;;
20468;SDS011;10393;52.460;13.322;2022-08-19T08:13:14;11.82;;;9.88;;
20468;SDS011;10393;52.460;13.322;2022-08-19T08:14:57;15.05;;;10.95;;
20468;SDS011;10393;52.460;13.322;2022-08-19T08:16:41;13.95;;;10.57;;
20468;SDS011;10393;52.460;13.322;2022-08-19T08:18:24;15.07;;;10.38;;
20468;SDS011;10393;52.460;13.322;2022-08-19T08:20:05;14.77;;;10.85;;
20468;SDS011;10393;52.460;13.322;2022-08-19T08:21:47;14.23;;;11.13;;
20468;SDS011;10393;52.460;13.322;2022-08-19T08:23:29;15.90;;;11.18;;
20468;SDS011;10393;52.460;13.322;2022-08-19T08:26:55;13.88;;;11.27;;
20468;SDS011;10393;52.460;13.322;2022-08-19T08:28:37;15.75;;;11.35;;
20468;SDS011;10393;52.460;13.322;2022-08-19T08:30:19;13.18;;;10.52;;
20468;SDS011;10393;52.460;13.322;2022-08-19T08:32:02;12.90;;;11.32;;
20468;SDS011;10393;52.460;13.322;2022-08-19T08:33:43;12.93;;;10.55;;
20468;SDS011;10393;52.460;13.322;2022-08-19T08:35:24;16.73;;;12.20;;
20468;SDS011;10393;52.460;13.322;2022-08-19T08:37:05;17.17;;;11.27;;
20468;SDS011;10393;52.460;13.322;2022-08-19T08:38:46;14.30;;;11.75;;
20468;SDS011;10393;52.460;13.322;2022-08-19T08:43:57;11.77;;;10.57;;
20468;SDS011;10393;52.460;13.322;2022-08-19T08:45:42;16.05;;;11.50;;
20468;SDS011;10393;52.460;13.322;2022-08-19T08:47:34;17.40;;;12.13;;
20468;SDS011;10393;52.460;13.322;2022-08-19T08:51:02;14.25;;;11.65;;
20468;SDS011;10393;52.460;13.322;2022-08-19T08:52:46;15.95;;;12.98;;
20468;SDS011;10393;52.460;13.322;2022-08-19T08:54:30;15.40;;;12.07;;
20468;SDS011;10393;52.460;13.322;2022-08-19T08:56:14;14.32;;;11.85;;
20468;SDS011;10393;52.460;13.322;2022-08-19T09:00:02;16.83;;;12.10;;
20468;SDS011;10393;52.460;13.322;2022-08-19T09:01:46;15.00;;;11.55;;
20468;SDS011;10393;52.460;13.322;2022-08-19T09:03:28;15.57;;;12.10;;
20468;SDS011;10393;52.460;13.322;2022-08-19T09:05:09;14.32;;;12.02;;
20468;SDS011;10393;52.460;13.322;2022-08-19T09:07:16;12.55;;;10.90;;
20468;SDS011;10393;52.460;13.322;2022-08-19T09:09:00;18.15;;;12.95;;
20468;SDS011;10393;52.460;13.322;2022-08-19T09:10:44;15.65;;;12.32;;
20468;SDS011;10393;52.460;13.322;2022-08-19T09:16:15;15.25;;;11.10;;
20468;SDS011;10393;52.460;13.322;2022-08-19T09:18:03;15.25;;;11.05;;
20468;SDS011;10393;52.460;13.322;2022-08-19T09:19:56;17.05;;;11.80;;
20468;SDS011;10393;52.460;13.322;2022-08-19T09:21:38;13.98;;;11.88;;
20468;SDS011;10393;52.460;13.322;2022-08-19T09:23:19;17.10;;;10.90;;
20468;SDS011;10393;52.460;13.322;2022-08-19T09:25:01;14.32;;;11.95;;
20468;SDS011;10393;52.460;13.322;2022-08-19T09:26:42;16.95;;;10.88;;
20468;SDS011;10393;52.460;13.322;2022-08-19T09:28:23;11.63;;;10.43;;
20468;SDS011;10393;52.460;13.322;2022-08-19T09:30:06;13.18;;;11.07;;
20468;SDS011;10393;52.460;13.322;2022-08-19T09:31:48;12.48;;;10.43;;
20468;SDS011;10393;52.460;13.322;2022-08-19T09:33:29;20.55;;;11.85;;
20468;SDS011;10393;52.460;13.322;2022-08-19T09:35:11;12.05;;;10.45;;
20468;SDS011;10393;52.460;13.322;2022-08-19T09:36:52;11.88;;;10.63;;
20468;SDS011;10393;52.460;13.322;2022-08-19T09:38:35;12.38;;;10.77;;
20468;SDS011;10393;52.460;13.322;2022-08-19T09:40:20;14.15;;;11.63;;
20468;SDS011;10393;52.460;13.322;2022-08-19T09:42:02;14.90;;;10.73;;
20468;SDS011;10393;52.460;13.322;2022-08-19T09:43:44;11.65;;;10.45;;
20468;SDS011;10393;52.460;13.322;2022-08-19T09:45:26;13.50;;;10.23;;
20468;SDS011;10393;52.460;13.322;2022-08-19T09:47:08;11.27;;;9.63;;
20468;SDS011;10393;52.460;13.322;2022-08-19T09:48:50;11.65;;;10.45;;
20468;SDS011;10393;52.460;13.322;2022-08-19T09:50:32;13.20;;;10.10;;
20468;SDS011;10393;52.460;13.322;2022-08-19T09:52:14;11.40;;;10.07;;
20468;SDS011;10393;52.460;13.322;2022-08-19T09:53:58;11.60;;;9.95;;
20468;SDS011;10393;52.460;13.322;2022-08-19T09:55:43;14.88;;;10.43;;
20468;SDS011;10393;52.460;13.322;2022-08-19T09:57:25;12.15;;;10.63;;
20468;SDS011;10393;52.460;13.322;2022-08-19T09:59:06;14.02;;;10.57;;
20468;SDS011;10393;52.460;13.322;2022-08-19T10:00:47;13.98;;;10.90;;
20468;SDS011;10393;52.460;13.322;2022-08-19T10:02:28;13.85;;;10.48;;
20468;SDS011;10393;52.460;13.322;2022-08-19T10:04:10;15.00;;;10.77;;
20468;SDS011;10393;52.460;13.322;2022-08-19T10:05:51;11.13;;;10.00;;
20468;SDS011;10393;52.460;13.322;2022-08-19T10:07:33;12.27;;;10.05;;
20468;SDS011;10393;52.460;13.322;2022-08-19T10:09:15;12.55;;;9.38;;
20468;SDS011;10393;52.460;13.322;2022-08-19T10:10:57;11.38;;;10.23;;
20468;SDS011;10393;52.460;13.322;2022-08-19T10:12:38;12.27;;;10.85;;